sensor_id;sensor_type;location;lat;lon;timestamp;pressure;altitude;pressure_sealevel;temperature;humidity
83246;BME280;73140;46.754;17.714;2024-02-21T00:01:44;100572.69;;;8.72;68.15
83246;BME280;73140;46.754;17.714;2024-02-21T00:04:34;100499.91;;;8.50;68.20
83246;BME280;73140;46.754;17.714;2024-02-21T00:07:40;100491.19;;;8.28;67.88
83246;BME280;73140;46.754;17.714;2024-02-21T00:10:31;100485.91;;;8.28;68.85
83246;BME280;73140;46.754;17.714;2024-02-21T00:13:19;100567.00;;;8.85;67.75
83246;BME280;73140;46.754;17.714;2024-02-21T00:15:57;100497.31;;;8.52;67.26
83246;BME280;73140;46.754;17.714;2024-02-21T00:18:31;100552.84;;;8.83;68.02
83246;BME280;73140;46.754;17.714;2024-02-21T00:21:27;100479.59;;;8.48;66.66
83246;BME280;73140;46.754;17.714;2024-02-21T00:24:45;100481.72;;;8.58;67.92
83246;BME280;73140;46.754;17.714;2024-02-21T00:27:03;100560.34;;;8.71;68.89
83246;BME280;73140;46.754;17.714;2024-02-21T00:33:11;100412.19;;;7.77;69.18
83246;BME280;73140;46.754;17.714;2024-02-21T00:36:16;100495.66;;;8.29;69.33
83246;BME280;73140;46.754;17.714;2024-02-21T00:39:19;100532.44;;;8.51;69.19
83246;BME280;73140;46.754;17.714;2024-02-21T00:42:21;100469.81;;;8.19;69.66
83246;BME280;73140;46.754;17.714;2024-02-21T00:45:07;100375.81;;;7.66;69.90
83246;BME280;73140;46.754;17.714;2024-02-21T00:51:22;100534.56;;;8.36;70.87
83246;BME280;73140;46.754;17.714;2024-02-21T00:54:16;100519.25;;;8.26;70.71
83246;BME280;73140;46.754;17.714;2024-02-21T00:57:27;100505.03;;;8.46;70.01
83246;BME280;73140;46.754;17.714;2024-02-21T01:00:17;100523.97;;;8.34;70.30
83246;BME280;73140;46.754;17.714;2024-02-21T01:05:56;100488.06;;;8.38;70.63
83246;BME280;73140;46.754;17.714;2024-02-21T01:08:35;100401.91;;;7.83;69.52
83246;BME280;73140;46.754;17.714;2024-02-21T01:11:22;100391.03;;;7.74;70.26
83246;BME280;73140;46.754;17.714;2024-02-21T01:14:36;100475.63;;;8.34;70.08
83246;BME280;73140;46.754;17.714;2024-02-21T01:24:19;100440.03;;;7.94;70.62
83246;BME280;73140;46.754;17.714;2024-02-21T01:27:02;100424.94;;;7.90;70.90
83246;BME280;73140;46.754;17.714;2024-02-21T01:54:06;100388.00;;;7.62;72.70
83246;BME280;73140;46.754;17.714;2024-02-21T02:00:01;100484.91;;;7.97;72.54
83246;BME280;73140;46.754;17.714;2024-02-21T02:09:47;100474.84;;;7.86;74.32
83246;BME280;73140;46.754;17.714;2024-02-21T02:12:23;100497.69;;;7.87;73.79
83246;BME280;73140;46.754;17.714;2024-02-21T02:15:19;100417.91;;;7.64;72.39
83246;BME280;73140;46.754;17.714;2024-02-21T02:21:39;100372.41;;;7.43;71.62
83246;BME280;73140;46.754;17.714;2024-02-21T02:24:17;100477.66;;;8.17;71.53
83246;BME280;73140;46.754;17.714;2024-02-21T02:27:13;100344.69;;;7.52;71.16
83246;BME280;73140;46.754;17.714;2024-02-21T02:29:58;100445.25;;;8.20;71.78
83246;BME280;73140;46.754;17.714;2024-02-21T02:57:05;100373.88;;;7.35;72.40
83246;BME280;73140;46.754;17.714;2024-02-21T02:59:58;100337.31;;;6.93;74.09
83246;BME280;73140;46.754;17.714;2024-02-21T03:03:34;100469.22;;;7.77;72.70
83246;BME280;73140;46.754;17.714;2024-02-21T03:06:25;100456.53;;;7.40;73.54
83246;BME280;73140;46.754;17.714;2024-02-21T03:09:18;100326.84;;;6.71;74.85
83246;BME280;73140;46.754;17.714;2024-02-21T03:12:03;100395.03;;;7.14;75.07
83246;BME280;73140;46.754;17.714;2024-02-21T03:14:52;100499.28;;;7.58;73.73
83246;BME280;73140;46.754;17.714;2024-02-21T03:39:06;100388.13;;;6.92;75.48
83246;BME280;73140;46.754;17.714;2024-02-21T03:42:22;100342.16;;;6.59;76.00
83246;BME280;73140;46.754;17.714;2024-02-21T03:47:59;100400.75;;;7.02;76.13
83246;BME280;73140;46.754;17.714;2024-02-21T03:50:30;100502.31;;;7.45;74.90
83246;BME280;73140;46.754;17.714;2024-02-21T03:53:43;100371.34;;;6.89;74.41
83246;BME280;73140;46.754;17.714;2024-02-21T04:03:18;100338.81;;;6.63;76.20
83246;BME280;73140;46.754;17.714;2024-02-21T04:09:53;100451.72;;;7.53;73.20
83246;BME280;73140;46.754;17.714;2024-02-21T04:12:42;100343.47;;;6.94;73.67
83246;BME280;73140;46.754;17.714;2024-02-21T04:15:53;100319.81;;;6.70;73.39
83246;BME280;73140;46.754;17.714;2024-02-21T04:18:43;100392.84;;;7.26;73.33
83246;BME280;73140;46.754;17.714;2024-02-21T04:22:06;100437.41;;;7.45;74.57
83246;BME280;73140;46.754;17.714;2024-02-21T04:24:31;100373.97;;;7.12;72.42
83246;BME280;73140;46.754;17.714;2024-02-21T04:31:02;100465.34;;;7.66;72.00
83246;BME280;73140;46.754;17.714;2024-02-21T04:44:38;100357.91;;;7.30;69.99
83246;BME280;73140;46.754;17.714;2024-02-21T04:47:56;100433.69;;;7.89;70.37
83246;BME280;73140;46.754;17.714;2024-02-21T04:53:57;100290.75;;;6.91;71.13
83246;BME280;73140;46.754;17.714;2024-02-21T04:54:44;100355.53;;;7.36;69.77
83246;BME280;73140;46.754;17.714;2024-02-21T04:57:56;100344.72;;;7.29;70.29
83246;BME280;73140;46.754;17.714;2024-02-21T05:00:40;100401.56;;;7.49;70.54
83246;BME280;73140;46.754;17.714;2024-02-21T05:03:14;100302.06;;;6.88;71.11
83246;BME280;73140;46.754;17.714;2024-02-21T05:06:22;100441.75;;;7.69;71.69
83246;BME280;73140;46.754;17.714;2024-02-21T05:09:08;100311.50;;;6.83;70.89
83246;BME280;73140;46.754;17.714;2024-02-21T05:11:49;100304.69;;;6.88;72.07
83246;BME280;73140;46.754;17.714;2024-02-21T05:14:23;100319.66;;;6.89;70.63
83246;BME280;73140;46.754;17.714;2024-02-21T05:17:04;100460.69;;;7.58;72.52
83246;BME280;73140;46.754;17.714;2024-02-21T05:19:46;100362.38;;;7.07;71.24
83246;BME280;73140;46.754;17.714;2024-02-21T05:22:19;100443.28;;;7.62;71.43
83246;BME280;73140;46.754;17.714;2024-02-21T05:24:59;100285.50;;;6.67;70.17
83246;BME280;73140;46.754;17.714;2024-02-21T05:27:36;100361.72;;;7.13;69.99
83246;BME280;73140;46.754;17.714;2024-02-21T05:30:11;100322.44;;;6.94;70.26
83246;BME280;73140;46.754;17.714;2024-02-21T05:33:07;100316.78;;;6.83;69.80
83246;BME280;73140;46.754;17.714;2024-02-21T05:35:56;100345.22;;;7.19;69.83
83246;BME280;73140;46.754;17.714;2024-02-21T05:38:48;100434.63;;;7.66;68.44
83246;BME280;73140;46.754;17.714;2024-02-21T05:41:19;100376.06;;;7.23;68.82
83246;BME280;73140;46.754;17.714;2024-02-21T05:50:28;100386.94;;;7.32;69.41
83246;BME280;73140;46.754;17.714;2024-02-21T05:56:32;100383.94;;;7.46;67.39
83246;BME280;73140;46.754;17.714;2024-02-21T05:59:22;100308.31;;;7.16;66.41
83246;BME280;73140;46.754;17.714;2024-02-21T06:02:50;100359.09;;;7.38;67.92
83246;BME280;73140;46.754;17.714;2024-02-21T06:05:25;100424.84;;;7.62;66.70
83246;BME280;73140;46.754;17.714;2024-02-21T06:08:33;100359.44;;;7.24;66.49
83246;BME280;73140;46.754;17.714;2024-02-21T06:17:52;100457.84;;;7.76;66.74
83246;BME280;73140;46.754;17.714;2024-02-21T06:20:36;100474.56;;;7.78;67.41
83246;BME280;73140;46.754;17.714;2024-02-21T06:23:21;100346.53;;;7.06;68.08
83246;BME280;73140;46.754;17.714;2024-02-21T06:32:58;100328.09;;;7.06;66.31
83246;BME280;73140;46.754;17.714;2024-02-21T06:35:29;100477.38;;;7.83;67.71
83246;BME280;73140;46.754;17.714;2024-02-21T06:37:56;100447.34;;;7.52;67.08
83246;BME280;73140;46.754;17.714;2024-02-21T06:40:22;100414.19;;;7.34;67.75
83246;BME280;73140;46.754;17.714;2024-02-21T06:42:51;100488.66;;;7.80;68.32
83246;BME280;73140;46.754;17.714;2024-02-21T06:45:27;100395.66;;;7.31;66.98
83246;BME280;73140;46.754;17.714;2024-02-21T06:47:53;100332.00;;;6.92;67.47
83246;BME280;73140;46.754;17.714;2024-02-21T06:50:30;100322.09;;;6.85;66.63
83246;BME280;73140;46.754;17.714;2024-02-21T06:52:56;100421.47;;;7.41;67.30
83246;BME280;73140;46.754;17.714;2024-02-21T06:55:25;100504.19;;;7.73;68.24
83246;BME280;73140;46.754;17.714;2024-02-21T06:57:51;100394.72;;;7.29;67.86
83246;BME280;73140;46.754;17.714;2024-02-21T07:00:18;100383.28;;;7.28;66.78
83246;BME280;73140;46.754;17.714;2024-02-21T07:02:44;100447.59;;;7.60;67.06
83246;BME280;73140;46.754;17.714;2024-02-21T07:05:10;100379.22;;;7.38;64.93
83246;BME280;73140;46.754;17.714;2024-02-21T07:07:59;100479.88;;;8.05;65.97
83246;BME280;73140;46.754;17.714;2024-02-21T07:10:25;100336.41;;;7.17;66.83
83246;BME280;73140;46.754;17.714;2024-02-21T07:12:53;100500.78;;;8.00;66.32
83246;BME280;73140;46.754;17.714;2024-02-21T07:15:19;100431.63;;;7.55;66.79
83246;BME280;73140;46.754;17.714;2024-02-21T07:17:47;100331.34;;;6.97;66.17
83246;BME280;73140;46.754;17.714;2024-02-21T07:20:13;100428.59;;;7.45;66.32
83246;BME280;73140;46.754;17.714;2024-02-21T07:22:41;100352.84;;;7.11;68.02
83246;BME280;73140;46.754;17.714;2024-02-21T07:25:24;100400.19;;;7.35;68.56
83246;BME280;73140;46.754;17.714;2024-02-21T07:27:52;100493.19;;;7.84;67.75
83246;BME280;73140;46.754;17.714;2024-02-21T07:30:20;100410.31;;;7.48;67.27
83246;BME280;73140;46.754;17.714;2024-02-21T07:32:49;100465.66;;;7.75;67.10
83246;BME280;73140;46.754;17.714;2024-02-21T07:35:16;100457.41;;;7.64;67.13
83246;BME280;73140;46.754;17.714;2024-02-21T07:37:45;100372.00;;;7.07;67.50
83246;BME280;73140;46.754;17.714;2024-02-21T07:40:14;100339.75;;;7.12;65.37
83246;BME280;73140;46.754;17.714;2024-02-21T07:42:46;100341.50;;;7.12;65.72
83246;BME280;73140;46.754;17.714;2024-02-21T07:45:16;100357.19;;;7.34;64.79
83246;BME280;73140;46.754;17.714;2024-02-21T07:47:44;100457.06;;;8.05;64.90
83246;BME280;73140;46.754;17.714;2024-02-21T07:50:13;100391.09;;;7.76;63.94
83246;BME280;73140;46.754;17.714;2024-02-21T07:52:39;100444.66;;;8.01;62.40
83246;BME280;73140;46.754;17.714;2024-02-21T07:55:06;100393.34;;;7.90;63.30
83246;BME280;73140;46.754;17.714;2024-02-21T07:57:35;100335.34;;;7.62;62.18
83246;BME280;73140;46.754;17.714;2024-02-21T08:00:01;100390.16;;;8.00;63.46
83246;BME280;73140;46.754;17.714;2024-02-21T08:02:38;100446.13;;;8.20;62.87
83246;BME280;73140;46.754;17.714;2024-02-21T08:05:10;100366.25;;;7.94;62.74
83246;BME280;73140;46.754;17.714;2024-02-21T08:07:41;100406.94;;;8.02;62.75
83246;BME280;73140;46.754;17.714;2024-02-21T08:10:22;100477.28;;;8.57;63.63
83246;BME280;73140;46.754;17.714;2024-02-21T08:12:57;100438.91;;;8.40;62.51
83246;BME280;73140;46.754;17.714;2024-02-21T08:15:23;100401.00;;;8.35;62.59
83246;BME280;73140;46.754;17.714;2024-02-21T08:17:55;100385.78;;;8.28;63.29
83246;BME280;73140;46.754;17.714;2024-02-21T08:20:25;100315.75;;;7.81;62.35
83246;BME280;73140;46.754;17.714;2024-02-21T08:22:51;100398.34;;;8.35;63.50
83246;BME280;73140;46.754;17.714;2024-02-21T08:25:17;100368.19;;;8.27;62.08
83246;BME280;73140;46.754;17.714;2024-02-21T08:27:50;100365.41;;;8.22;62.93
83246;BME280;73140;46.754;17.714;2024-02-21T08:30:19;100462.16;;;8.80;62.71
83246;BME280;73140;46.754;17.714;2024-02-21T08:32:45;100426.44;;;8.61;61.53
83246;BME280;73140;46.754;17.714;2024-02-21T08:35:15;100344.34;;;8.24;60.37
83246;BME280;73140;46.754;17.714;2024-02-21T08:37:41;100311.25;;;8.32;61.62
83246;BME280;73140;46.754;17.714;2024-02-21T08:40:09;100453.50;;;9.14;61.79
83246;BME280;73140;46.754;17.714;2024-02-21T08:42:43;100458.53;;;9.05;61.40
83246;BME280;73140;46.754;17.714;2024-02-21T08:45:10;100417.38;;;8.81;62.20
83246;BME280;73140;46.754;17.714;2024-02-21T08:47:39;100366.22;;;8.46;60.20
83246;BME280;73140;46.754;17.714;2024-02-21T08:50:06;100369.84;;;8.50;62.01
83246;BME280;73140;46.754;17.714;2024-02-21T08:52:39;100375.03;;;8.48;61.27
83246;BME280;73140;46.754;17.714;2024-02-21T08:55:14;100396.81;;;8.70;60.25
83246;BME280;73140;46.754;17.714;2024-02-21T08:57:40;100454.69;;;8.93;60.38
83246;BME280;73140;46.754;17.714;2024-02-21T09:00:15;100395.31;;;8.51;60.23
83246;BME280;73140;46.754;17.714;2024-02-21T09:02:42;100363.59;;;8.48;59.73
83246;BME280;73140;46.754;17.714;2024-02-21T09:05:09;100407.22;;;8.65;60.51
83246;BME280;73140;46.754;17.714;2024-02-21T09:07:41;100474.50;;;9.09;59.66
83246;BME280;73140;46.754;17.714;2024-02-21T09:10:17;100454.41;;;9.14;58.41
83246;BME280;73140;46.754;17.714;2024-02-21T09:12:43;100287.81;;;8.41;58.18
83246;BME280;73140;46.754;17.714;2024-02-21T09:15:13;100365.06;;;8.96;58.79
83246;BME280;73140;46.754;17.714;2024-02-21T09:17:48;100347.63;;;9.01;57.25
83246;BME280;73140;46.754;17.714;2024-02-21T09:20:14;100359.38;;;9.13;57.96
83246;BME280;73140;46.754;17.714;2024-02-21T09:22:42;100352.44;;;9.16;58.92
83246;BME280;73140;46.754;17.714;2024-02-21T09:25:17;100397.38;;;9.19;58.68
83246;BME280;73140;46.754;17.714;2024-02-21T09:27:54;100431.00;;;9.58;58.28
83246;BME280;73140;46.754;17.714;2024-02-21T09:30:23;100353.22;;;9.14;60.21
83246;BME280;73140;46.754;17.714;2024-02-21T09:32:55;100368.84;;;9.37;61.19
83246;BME280;73140;46.754;17.714;2024-02-21T09:35:26;100413.69;;;9.36;58.72
83246;BME280;73140;46.754;17.714;2024-02-21T09:37:57;100382.50;;;9.23;60.19
83246;BME280;73140;46.754;17.714;2024-02-21T09:40:23;100368.13;;;9.43;59.31
83246;BME280;73140;46.754;17.714;2024-02-21T09:42:58;100335.19;;;9.29;60.17
83246;BME280;73140;46.754;17.714;2024-02-21T09:45:28;100339.00;;;9.40;59.26
83246;BME280;73140;46.754;17.714;2024-02-21T09:48:22;100282.91;;;9.16;58.51
83246;BME280;73140;46.754;17.714;2024-02-21T09:50:57;100360.44;;;9.52;59.47
83246;BME280;73140;46.754;17.714;2024-02-21T09:53:31;100283.06;;;9.22;59.51
83246;BME280;73140;46.754;17.714;2024-02-21T09:56:01;100418.47;;;10.16;59.72
83246;BME280;73140;46.754;17.714;2024-02-21T09:58:29;100436.97;;;10.15;56.66
83246;BME280;73140;46.754;17.714;2024-02-21T10:01:17;100266.28;;;9.54;57.94
83246;BME280;73140;46.754;17.714;2024-02-21T10:03:45;100325.63;;;10.03;57.27
83246;BME280;73140;46.754;17.714;2024-02-21T10:06:19;100286.16;;;9.74;57.71
83246;BME280;73140;46.754;17.714;2024-02-21T10:08:53;100355.72;;;10.45;58.31
83246;BME280;73140;46.754;17.714;2024-02-21T10:11:22;100365.56;;;10.52;57.77
83246;BME280;73140;46.754;17.714;2024-02-21T10:13:49;100335.41;;;10.44;57.40
83246;BME280;73140;46.754;17.714;2024-02-21T10:16:20;100294.88;;;10.08;57.33
83246;BME280;73140;46.754;17.714;2024-02-21T10:19:15;100318.41;;;10.33;56.43
83246;BME280;73140;46.754;17.714;2024-02-21T10:21:40;100319.59;;;10.47;57.27
83246;BME280;73140;46.754;17.714;2024-02-21T10:24:06;100399.38;;;10.65;58.42
83246;BME280;73140;46.754;17.714;2024-02-21T10:26:33;100269.75;;;9.87;57.52
83246;BME280;73140;46.754;17.714;2024-02-21T10:29:01;100315.84;;;10.36;59.97
83246;BME280;73140;46.754;17.714;2024-02-21T10:31:28;100284.03;;;10.33;59.17
83246;BME280;73140;46.754;17.714;2024-02-21T10:34:00;100377.47;;;11.14;60.19
83246;BME280;73140;46.754;17.714;2024-02-21T10:36:28;100327.22;;;10.72;58.48
83246;BME280;73140;46.754;17.714;2024-02-21T10:38:57;100290.84;;;10.62;58.24
83246;BME280;73140;46.754;17.714;2024-02-21T10:41:24;100339.84;;;10.85;57.65
83246;BME280;73140;46.754;17.714;2024-02-21T10:43:51;100315.09;;;10.83;57.02
83246;BME280;73140;46.754;17.714;2024-02-21T10:46:20;100384.38;;;11.05;57.06
83246;BME280;73140;46.754;17.714;2024-02-21T10:49:01;100313.81;;;10.65;57.92
83246;BME280;73140;46.754;17.714;2024-02-21T10:51:31;100222.47;;;10.40;58.52
83246;BME280;73140;46.754;17.714;2024-02-21T10:54:28;100281.78;;;10.95;60.90
83246;BME280;73140;46.754;17.714;2024-02-21T10:56:57;100282.47;;;10.84;57.08
83246;BME280;73140;46.754;17.714;2024-02-21T10:59:30;100276.34;;;10.85;60.42
83246;BME280;73140;46.754;17.714;2024-02-21T11:01:57;100233.19;;;10.91;56.21
83246;BME280;73140;46.754;17.714;2024-02-21T11:04:28;100277.38;;;11.42;58.16
83246;BME280;73140;46.754;17.714;2024-02-21T11:06:59;100302.44;;;11.60;53.75
83246;BME280;73140;46.754;17.714;2024-02-21T11:09:53;100223.72;;;11.04;53.55
83246;BME280;73140;46.754;17.714;2024-02-21T11:12:22;100320.59;;;11.89;55.27
83246;BME280;73140;46.754;17.714;2024-02-21T11:14:49;100286.16;;;11.90;54.75
83246;BME280;73140;46.754;17.714;2024-02-21T11:17:15;100240.44;;;12.05;54.75
83246;BME280;73140;46.754;17.714;2024-02-21T11:19:43;100293.06;;;12.39;52.60
83246;BME280;73140;46.754;17.714;2024-02-21T11:22:26;100314.47;;;12.50;50.75
83246;BME280;73140;46.754;17.714;2024-02-21T11:25:06;100268.22;;;12.32;51.50
83246;BME280;73140;46.754;17.714;2024-02-21T11:28:03;100220.06;;;12.04;51.23
83246;BME280;73140;46.754;17.714;2024-02-21T11:30:35;100174.72;;;11.84;50.77
83246;BME280;73140;46.754;17.714;2024-02-21T11:33:02;100216.34;;;11.90;47.91
83246;BME280;73140;46.754;17.714;2024-02-21T11:35:33;100300.31;;;12.49;49.06
83246;BME280;73140;46.754;17.714;2024-02-21T11:38:10;100263.13;;;12.46;50.53
83246;BME280;73140;46.754;17.714;2024-02-21T11:40:50;100179.25;;;11.93;47.68
83246;BME280;73140;46.754;17.714;2024-02-21T11:43:17;100162.25;;;11.77;48.93
83246;BME280;73140;46.754;17.714;2024-02-21T11:45:43;100168.72;;;11.96;49.83
83246;BME280;73140;46.754;17.714;2024-02-21T11:48:09;100282.09;;;12.79;47.57
83246;BME280;73140;46.754;17.714;2024-02-21T11:50:55;100143.94;;;11.94;46.52
83246;BME280;73140;46.754;17.714;2024-02-21T11:53:28;100122.50;;;11.75;47.55
83246;BME280;73140;46.754;17.714;2024-02-21T11:55:56;100145.16;;;12.20;47.43
83246;BME280;73140;46.754;17.714;2024-02-21T11:58:25;100286.38;;;12.65;46.71
83246;BME280;73140;46.754;17.714;2024-02-21T12:00:52;100179.75;;;12.29;47.79
83246;BME280;73140;46.754;17.714;2024-02-21T12:03:18;100189.81;;;12.59;47.33
83246;BME280;73140;46.754;17.714;2024-02-21T12:05:47;100209.66;;;12.91;45.81
83246;BME280;73140;46.754;17.714;2024-02-21T12:08:15;100157.34;;;12.82;46.22
83246;BME280;73140;46.754;17.714;2024-02-21T12:10:42;100230.38;;;13.25;45.59
83246;BME280;73140;46.754;17.714;2024-02-21T12:13:10;100203.88;;;13.32;47.41
83246;BME280;73140;46.754;17.714;2024-02-21T12:15:38;100168.28;;;13.11;45.73
83246;BME280;73140;46.754;17.714;2024-02-21T12:18:19;100153.25;;;13.15;44.54
83246;BME280;73140;46.754;17.714;2024-02-21T12:20:55;100163.06;;;13.22;46.28
83246;BME280;73140;46.754;17.714;2024-02-21T12:23:21;100218.09;;;13.38;46.57
83246;BME280;73140;46.754;17.714;2024-02-21T12:25:47;100106.66;;;12.54;45.71
83246;BME280;73140;46.754;17.714;2024-02-21T12:28:14;100223.19;;;13.14;45.60
83246;BME280;73140;46.754;17.714;2024-02-21T12:30:43;100075.63;;;12.48;46.91
83246;BME280;73140;46.754;17.714;2024-02-21T12:33:18;100192.91;;;12.97;45.90
83246;BME280;73140;46.754;17.714;2024-02-21T12:35:50;100123.69;;;12.78;45.48
83246;BME280;73140;46.754;17.714;2024-02-21T12:38:25;100073.97;;;12.61;45.21
83246;BME280;73140;46.754;17.714;2024-02-21T12:40:51;100178.16;;;13.27;44.64
83246;BME280;73140;46.754;17.714;2024-02-21T12:43:20;100115.09;;;13.08;44.29
83246;BME280;73140;46.754;17.714;2024-02-21T12:45:48;100178.31;;;13.49;45.57
83246;BME280;73140;46.754;17.714;2024-02-21T12:48:15;100126.78;;;13.24;44.08
83246;BME280;73140;46.754;17.714;2024-02-21T12:50:48;100158.09;;;13.70;44.85
83246;BME280;73140;46.754;17.714;2024-02-21T12:53:21;100154.59;;;13.74;43.67
83246;BME280;73140;46.754;17.714;2024-02-21T12:55:50;100057.69;;;13.25;44.32
83246;BME280;73140;46.754;17.714;2024-02-21T12:58:36;100125.34;;;13.71;44.41
83246;BME280;73140;46.754;17.714;2024-02-21T13:01:02;100040.81;;;13.14;43.76
83246;BME280;73140;46.754;17.714;2024-02-21T13:03:31;100138.72;;;13.90;42.82
83246;BME280;73140;46.754;17.714;2024-02-21T13:06:00;100136.84;;;13.77;43.23
83246;BME280;73140;46.754;17.714;2024-02-21T13:08:28;100132.38;;;13.66;43.40
83246;BME280;73140;46.754;17.714;2024-02-21T13:11:14;100142.25;;;13.86;41.48
83246;BME280;73140;46.754;17.714;2024-02-21T13:13:40;100081.00;;;13.67;42.71
83246;BME280;73140;46.754;17.714;2024-02-21T13:16:06;100077.31;;;13.49;43.90
83246;BME280;73140;46.754;17.714;2024-02-21T13:18:32;100083.66;;;13.73;43.68
83246;BME280;73140;46.754;17.714;2024-02-21T13:21:03;100042.72;;;13.35;41.55
83246;BME280;73140;46.754;17.714;2024-02-21T13:23:30;100102.34;;;13.80;43.88
83246;BME280;73140;46.754;17.714;2024-02-21T13:25:56;100000.22;;;13.41;42.96
83246;BME280;73140;46.754;17.714;2024-02-21T13:28:23;100046.50;;;13.83;41.85
83246;BME280;73140;46.754;17.714;2024-02-21T13:30:50;100089.13;;;14.01;42.10
83246;BME280;73140;46.754;17.714;2024-02-21T13:33:18;100087.25;;;13.82;42.86
83246;BME280;73140;46.754;17.714;2024-02-21T13:35:44;100044.59;;;13.56;46.01
83246;BME280;73140;46.754;17.714;2024-02-21T13:38:10;100092.63;;;13.91;44.19
83246;BME280;73140;46.754;17.714;2024-02-21T13:40:36;100014.41;;;13.46;44.58
83246;BME280;73140;46.754;17.714;2024-02-21T13:43:07;100102.41;;;14.04;44.28
83246;BME280;73140;46.754;17.714;2024-02-21T13:45:37;100054.47;;;13.84;42.01
83246;BME280;73140;46.754;17.714;2024-02-21T13:48:11;100090.94;;;14.14;44.16
83246;BME280;73140;46.754;17.714;2024-02-21T13:50:38;100009.22;;;13.73;44.54
83246;BME280;73140;46.754;17.714;2024-02-21T13:53:19;100012.81;;;13.82;42.16
83246;BME280;73140;46.754;17.714;2024-02-21T13:55:55;100042.97;;;13.96;44.17
83246;BME280;73140;46.754;17.714;2024-02-21T13:58:43;100023.47;;;13.91;42.21
83246;BME280;73140;46.754;17.714;2024-02-21T14:01:11;100012.63;;;13.39;42.28
83246;BME280;73140;46.754;17.714;2024-02-21T14:03:37;99991.41;;;13.48;42.13
83246;BME280;73140;46.754;17.714;2024-02-21T14:06:06;100013.59;;;13.58;42.64
83246;BME280;73140;46.754;17.714;2024-02-21T14:09:02;100004.75;;;13.56;42.85
83246;BME280;73140;46.754;17.714;2024-02-21T14:11:28;100063.28;;;13.71;42.72
83246;BME280;73140;46.754;17.714;2024-02-21T14:13:56;100000.22;;;13.41;43.11
83246;BME280;73140;46.754;17.714;2024-02-21T14:16:29;100067.78;;;13.86;44.11
83246;BME280;73140;46.754;17.714;2024-02-21T14:18:55;99935.59;;;13.50;44.84
83246;BME280;73140;46.754;17.714;2024-02-21T14:21:23;100007.56;;;14.09;43.30
83246;BME280;73140;46.754;17.714;2024-02-21T14:23:54;99931.22;;;13.65;42.08
83246;BME280;73140;46.754;17.714;2024-02-21T14:26:31;99987.91;;;13.64;43.44
83246;BME280;73140;46.754;17.714;2024-02-21T14:29:00;99907.19;;;13.38;43.40
83246;BME280;73140;46.754;17.714;2024-02-21T14:31:31;99963.16;;;13.74;42.95
83246;BME280;73140;46.754;17.714;2024-02-21T14:34:03;100046.56;;;14.04;44.10
83246;BME280;73140;46.754;17.714;2024-02-21T14:36:29;99964.03;;;13.73;42.77
83246;BME280;73140;46.754;17.714;2024-02-21T14:38:56;99963.97;;;13.55;43.33
83246;BME280;73140;46.754;17.714;2024-02-21T14:41:40;99977.25;;;13.55;44.17
83246;BME280;73140;46.754;17.714;2024-02-21T14:44:07;99936.38;;;13.23;43.02
83246;BME280;73140;46.754;17.714;2024-02-21T14:46:37;99996.66;;;13.36;44.25
83246;BME280;73140;46.754;17.714;2024-02-21T14:49:04;99951.28;;;13.03;44.87
83246;BME280;73140;46.754;17.714;2024-02-21T14:51:32;99910.41;;;12.75;45.01
83246;BME280;73140;46.754;17.714;2024-02-21T14:53:59;99951.19;;;12.88;45.43
83246;BME280;73140;46.754;17.714;2024-02-21T14:56:25;100040.06;;;13.35;46.39
83246;BME280;73140;46.754;17.714;2024-02-21T14:58:51;99948.59;;;12.97;46.92
83246;BME280;73140;46.754;17.714;2024-02-21T15:01:18;99948.59;;;12.94;46.41
83246;BME280;73140;46.754;17.714;2024-02-21T15:03:45;100019.69;;;13.33;47.31
83246;BME280;73140;46.754;17.714;2024-02-21T15:06:11;100016.06;;;13.23;48.16
83246;BME280;73140;46.754;17.714;2024-02-21T15:08:38;100015.22;;;13.27;47.21
83246;BME280;73140;46.754;17.714;2024-02-21T15:11:04;99942.28;;;12.76;47.42
83246;BME280;73140;46.754;17.714;2024-02-21T15:13:30;99943.13;;;12.75;48.76
83246;BME280;73140;46.754;17.714;2024-02-21T15:15:56;100012.47;;;13.12;47.04
83246;BME280;73140;46.754;17.714;2024-02-21T15:18:22;99986.63;;;12.94;49.32
83246;BME280;73140;46.754;17.714;2024-02-21T15:20:49;99943.97;;;12.67;50.11
83246;BME280;73140;46.754;17.714;2024-02-21T15:23:15;100005.31;;;13.08;48.64
83246;BME280;73140;46.754;17.714;2024-02-21T15:25:45;99983.03;;;12.86;48.60
83246;BME280;73140;46.754;17.714;2024-02-21T15:28:20;99937.75;;;12.63;48.77
83246;BME280;73140;46.754;17.714;2024-02-21T15:30:49;99965.22;;;12.68;48.79
83246;BME280;73140;46.754;17.714;2024-02-21T15:33:15;100000.69;;;12.79;50.30
83246;BME280;73140;46.754;17.714;2024-02-21T15:35:41;99927.88;;;12.44;49.53
83246;BME280;73140;46.754;17.714;2024-02-21T15:38:08;99991.00;;;12.82;48.30
83246;BME280;73140;46.754;17.714;2024-02-21T15:40:35;99928.63;;;12.28;49.80
83246;BME280;73140;46.754;17.714;2024-02-21T15:43:03;99974.84;;;12.53;49.87
83246;BME280;73140;46.754;17.714;2024-02-21T15:45:32;99971.16;;;12.37;49.21
83246;BME280;73140;46.754;17.714;2024-02-21T15:47:58;99999.53;;;12.47;50.19
83246;BME280;73140;46.754;17.714;2024-02-21T15:50:27;99941.78;;;12.16;50.63
83246;BME280;73140;46.754;17.714;2024-02-21T15:52:57;99960.28;;;12.07;50.18
83246;BME280;73140;46.754;17.714;2024-02-21T15:55:25;99934.50;;;11.94;50.50
83246;BME280;73140;46.754;17.714;2024-02-21T15:57:54;99920.25;;;11.82;52.08
83246;BME280;73140;46.754;17.714;2024-02-21T16:00:21;99921.09;;;11.78;51.93
83246;BME280;73140;46.754;17.714;2024-02-21T16:02:47;99912.09;;;11.64;52.54